Adobe Reservoir




Date Battery Voltage (V) Panel Temperature (degF) Reservoir Height (ft) Reservoir Acre Feet (AF) Blue Cut-Clipper-Western Meter (cfs) Hunter Plant Meter (cfs) Air Temperature (degF) Blue Cut-Clipper-Western Meter GPM (gpm) Hunter Plant Meter GPM (gpm) Reservoir Elevation (ft) Battery Voltage 24 (V) Hunter Plant Meter Total Gallons (gal) Pond Battery Voltage (V) Pond 24V Battery Voltage (V) Pipe PSI (PSI) K Gallons Total (gal) Signal Strength (db) Call Fails (ea) Total Fails (ea) Tries (ea) Water Level Sensor Upper Mammoth Meter (gpm) Upper Mammoth Meter (cfs)
05/01/2018 12.3 16.3 93.0 804 33.9 20.0 51 15,191 8,981 5,993.0 28.7 12.2 25.1 23.1 7,640,264.00 0.00 3,075.63 6.85
05/02/2018 12.3 14.6 93.6 848 17.9 21.4 51 8,032 9,583 5,993.6 28.4 12.2 24.6 24.5 7,654,023.00 0.00 1,018.61 2.27
05/03/2018 12.3 15.4 94.6 917 13.4 22.5 50 5,996 10,105 5,994.6 28.9 12.2 25.5 25.1 7,668,799.00 0.00 274.79 0.61
05/04/2018 12.3 17.3 95.1 953 13.8 26.3 51 6,195 11,820 5,995.1 28.6 12.2 25.6 25.2 7,686,038.00 0.00 450.63 1.00
05/05/2018 12.3 19.4 95.4 976 17.4 26.1 51 7,829 11,731 5,995.4 28.6 12.2 25.5 25.1 7,703,134.00 0.00 1,067.57 2.38
05/06/2018 12.3 20.8 95.6 989 17.8 28.6 52 7,982 12,819 5,995.6 28.6 12.2 25.3 25.0 7,721,826.00 0.00 1,394.72 3.11
05/07/2018 12.3 21.2 95.6 991 20.6 28.5 52 9,253 12,804 5,995.6 28.6 12.2 25.3 24.6 7,740,483.00 0.00 3,307.78 7.37
05/08/2018 12.3 21.9 95.4 980 27.0 28.5 53 12,106 12,787 5,995.4 28.5 12.2 25.0 24.0 7,759,047.00 0.00 3,856.25 8.59
05/09/2018 12.3 22.5 95.4 973 32.5 28.4 54 14,603 12,736 5,995.4 28.6 12.2 24.8 23.5 7,777,293.00 0.00 3,827.92 8.53
05/10/2018 12.3 23.8 95.4 974 36.9 28.3 55 16,546 12,722 5,995.4 28.6 12.2 25.0 23.4 7,795,472.00 0.00 3,245.14 7.23
05/11/2018 12.3 22.0 95.3 973 38.0 25.9 55 17,059 11,631 5,995.3 28.6 12.2 24.2 23.5 7,812,010.00 62.55 2,780.21 6.19
05/12/2018 12.3 19.5 95.4 979 40.9 22.4 55 18,366 10,049 5,995.4 28.8 12.2 24.8 23.7 7,826,371.00 0.00 2,298.96 5.12
05/13/2018 12.3 18.2 95.5 987 35.1 24.8 54 15,749 11,133 5,995.5 28.5 12.2 25.0 24.2 7,842,587.00 0.00 1,135.63 2.53
05/14/2018 12.3 18.9 95.7 1,000 42.1 24.7 53 18,909 11,097 5,995.7 28.6 12.2 25.1 23.3 7,858,663.00 0.00 3,225.90 7.19
05/15/2018 12.3 20.1 95.5 984 44.1 25.3 53 19,812 11,342 5,995.5 28.6 12.2 25.1 22.8 7,875,129.00 0.00 4,215.14 9.39
05/16/2018 12.3 21.4 95.4 980 39.7 23.1 54 17,828 10,344 5,995.4 28.5 12.2 25.0 23.6 7,890,143.00 0.00 2,911.81 6.49
05/17/2018 12.3 22.1 95.6 991 36.4 23.0 54 16,352 10,301 5,995.6 28.5 12.2 24.7 23.9 7,905,093.00 0.00 2,942.92 6.56
05/18/2018 12.3 20.7 95.7 999 35.9 26.5 54 16,089 11,875 5,995.7 28.7 12.2 25.0 23.5 7,922,244.00 0.00 4,074.03 9.08
05/19/2018 12.3 20.7 95.7 1,000 37.3 27.5 54 16,749 12,335 5,995.7 28.6 12.2 25.1 23.6 7,939,929.00 0.00 3,032.01 6.76
05/20/2018 12.3 20.9 95.9 1,013 31.6 25.5 54 14,200 11,422 5,995.9 28.6 12.2 24.7 24.4 7,956,343.00 0.00 1,433.19 3.19
05/21/2018 12.3 20.1 96.2 1,036 33.1 30.0 54 14,836 13,473 5,996.2 28.7 12.2 25.3 24.0 7,975,783.00 0.00 2,437.50 5.43
05/22/2018 12.3 21.3 96.3 1,048 32.4 29.9 55 14,558 13,431 5,996.3 28.6 12.2 25.0 24.0 7,995,223.00 0.00 3,132.85 6.98
05/23/2018 12.3 20.7 96.4 1,051 31.4 27.4 55 14,107 12,287 5,996.4 28.6 12.2 24.9 24.3 8,013,052.00 0.00 2,747.92 6.12
05/24/2018 12.3 21.5 96.3 1,049 33.8 28.0 55 15,167 12,575 5,996.3 28.6 12.2 25.1 24.2 8,031,353.00 0.00 2,505.42 5.58
05/25/2018 12.3 23.3 96.2 1,041 33.0 27.9 55 14,795 12,523 5,996.2 28.6 12.2 25.1 24.0 8,049,592.00 0.00 3,255.97 7.25
05/26/2018 12.3 23.5 96.1 1,032 34.8 27.3 56 15,638 12,246 5,996.1 28.5 12.2 25.1 23.9 8,067,427.00 0.00 2,882.29 6.42
05/27/2018 12.3 22.5 96.2 1,035 32.0 27.2 56 14,351 12,222 5,996.2 28.6 12.2 25.2 24.4 8,085,224.00 0.00 1,842.78 4.11
05/28/2018 12.3 21.2 96.2 1,041 32.0 25.0 56 14,339 11,216 5,996.2 28.6 12.2 25.1 24.2 8,101,548.00 0.00 3,681.18 8.20
05/29/2018 12.3 21.3 96.3 1,048 31.0 27.0 56 13,916 12,137 5,996.3 28.7 12.2 25.1 24.2 8,119,185.00 0.00 3,547.01 7.90
05/30/2018 12.3 22.4 96.5 1,059 29.8 27.6 56 13,388 12,407 5,996.5 28.8 12.2 25.2 24.4 8,137,208.00 0.00 3,082.43 6.87
05/31/2018 12.3 23.3 96.7 1,075 30.3 27.9 56 13,585 12,542 5,996.7 29.0 12.2 25.1 24.4 8,155,461.00 0.00 3,261.53 7.27
Average 31.2 26.2 5.89
Maximum 44.1 30.0 9.39
Minimum 13.4 20.0 0.61
Total Volume (AF) 1,915.4 1,611.2 362.04